sensor_id;sensor_type;location;lat;lon;timestamp;P1;durP1;ratioP1;P2;durP2;ratioP2
45642;SDS011;31358;46.008;11.144;2023-07-29T00:01:37;6.78;;;3.70;;
45642;SDS011;31358;46.008;11.144;2023-07-29T00:04:06;5.38;;;2.90;;
45642;SDS011;31358;46.008;11.144;2023-07-29T00:06:33;5.47;;;2.80;;
45642;SDS011;31358;46.008;11.144;2023-07-29T00:08:58;13.38;;;3.63;;
45642;SDS011;31358;46.008;11.144;2023-07-29T00:11:24;7.45;;;2.92;;
45642;SDS011;31358;46.008;11.144;2023-07-29T00:13:50;4.95;;;2.83;;
45642;SDS011;31358;46.008;11.144;2023-07-29T00:16:16;4.78;;;3.00;;
45642;SDS011;31358;46.008;11.144;2023-07-29T00:18:42;5.57;;;3.15;;
45642;SDS011;31358;46.008;11.144;2023-07-29T00:21:08;6.93;;;3.10;;
45642;SDS011;31358;46.008;11.144;2023-07-29T00:23:34;7.32;;;3.80;;
45642;SDS011;31358;46.008;11.144;2023-07-29T00:26:00;5.68;;;3.67;;
45642;SDS011;31358;46.008;11.144;2023-07-29T00:28:25;5.38;;;2.70;;
45642;SDS011;31358;46.008;11.144;2023-07-29T00:30:51;6.40;;;3.40;;
45642;SDS011;31358;46.008;11.144;2023-07-29T00:33:16;8.68;;;3.22;;
45642;SDS011;31358;46.008;11.144;2023-07-29T00:35:42;5.88;;;3.20;;
45642;SDS011;31358;46.008;11.144;2023-07-29T00:38:08;5.07;;;2.97;;
45642;SDS011;31358;46.008;11.144;2023-07-29T00:40:35;8.90;;;3.30;;
45642;SDS011;31358;46.008;11.144;2023-07-29T00:43:01;5.03;;;2.47;;
45642;SDS011;31358;46.008;11.144;2023-07-29T00:45:27;6.63;;;3.03;;
45642;SDS011;31358;46.008;11.144;2023-07-29T00:47:55;7.00;;;3.10;;
45642;SDS011;31358;46.008;11.144;2023-07-29T00:50:20;7.68;;;3.35;;
45642;SDS011;31358;46.008;11.144;2023-07-29T00:52:46;5.40;;;2.72;;
45642;SDS011;31358;46.008;11.144;2023-07-29T00:55:13;8.27;;;3.38;;
45642;SDS011;31358;46.008;11.144;2023-07-29T00:57:39;5.03;;;3.17;;
45642;SDS011;31358;46.008;11.144;2023-07-29T01:00:05;4.82;;;3.13;;
45642;SDS011;31358;46.008;11.144;2023-07-29T01:02:31;6.18;;;3.13;;
45642;SDS011;31358;46.008;11.144;2023-07-29T01:04:58;8.77;;;3.80;;
45642;SDS011;31358;46.008;11.144;2023-07-29T01:07:29;5.43;;;3.08;;
45642;SDS011;31358;46.008;11.144;2023-07-29T01:17:59;7.63;;;2.80;;
45642;SDS011;31358;46.008;11.144;2023-07-29T01:20:29;7.15;;;3.40;;
45642;SDS011;31358;46.008;11.144;2023-07-29T01:22:58;5.68;;;3.08;;
45642;SDS011;31358;46.008;11.144;2023-07-29T01:25:24;5.78;;;2.75;;
45642;SDS011;31358;46.008;11.144;2023-07-29T01:27:51;4.80;;;2.78;;
45642;SDS011;31358;46.008;11.144;2023-07-29T01:30:17;8.68;;;3.05;;
45642;SDS011;31358;46.008;11.144;2023-07-29T01:35:42;6.35;;;3.00;;
45642;SDS011;31358;46.008;11.144;2023-07-29T01:38:17;4.68;;;2.58;;
45642;SDS011;31358;46.008;11.144;2023-07-29T01:43:13;5.07;;;2.53;;
45642;SDS011;31358;46.008;11.144;2023-07-29T01:45:38;7.53;;;2.80;;
45642;SDS011;31358;46.008;11.144;2023-07-29T01:48:05;2.58;;;1.58;;
45642;SDS011;31358;46.008;11.144;2023-07-29T01:50:31;3.45;;;1.88;;
45642;SDS011;31358;46.008;11.144;2023-07-29T01:52:57;4.85;;;2.15;;
45642;SDS011;31358;46.008;11.144;2023-07-29T01:55:23;3.45;;;1.98;;
45642;SDS011;31358;46.008;11.144;2023-07-29T01:57:49;4.25;;;1.85;;
45642;SDS011;31358;46.008;11.144;2023-07-29T02:00:16;3.50;;;1.77;;
45642;SDS011;31358;46.008;11.144;2023-07-29T02:02:42;4.85;;;1.98;;
45642;SDS011;31358;46.008;11.144;2023-07-29T02:05:08;3.72;;;1.83;;
45642;SDS011;31358;46.008;11.144;2023-07-29T02:07:34;5.65;;;2.13;;
45642;SDS011;31358;46.008;11.144;2023-07-29T02:09:59;5.55;;;1.70;;
45642;SDS011;31358;46.008;11.144;2023-07-29T02:12:25;4.68;;;2.17;;
45642;SDS011;31358;46.008;11.144;2023-07-29T02:14:51;3.67;;;2.05;;
45642;SDS011;31358;46.008;11.144;2023-07-29T02:17:16;4.28;;;2.35;;
45642;SDS011;31358;46.008;11.144;2023-07-29T02:19:42;4.95;;;2.45;;
45642;SDS011;31358;46.008;11.144;2023-07-29T02:22:08;3.75;;;2.00;;
45642;SDS011;31358;46.008;11.144;2023-07-29T02:24:35;5.15;;;2.00;;
45642;SDS011;31358;46.008;11.144;2023-07-29T02:27:00;4.13;;;2.58;;
45642;SDS011;31358;46.008;11.144;2023-07-29T02:29:26;4.57;;;2.47;;
45642;SDS011;31358;46.008;11.144;2023-07-29T02:31:51;3.97;;;2.30;;
45642;SDS011;31358;46.008;11.144;2023-07-29T02:34:17;7.32;;;2.03;;
45642;SDS011;31358;46.008;11.144;2023-07-29T02:36:43;3.65;;;1.88;;
45642;SDS011;31358;46.008;11.144;2023-07-29T02:39:09;3.90;;;2.17;;
45642;SDS011;31358;46.008;11.144;2023-07-29T02:41:34;7.07;;;2.08;;
45642;SDS011;31358;46.008;11.144;2023-07-29T02:44:01;5.90;;;1.95;;
45642;SDS011;31358;46.008;11.144;2023-07-29T02:46:27;3.53;;;1.90;;
45642;SDS011;31358;46.008;11.144;2023-07-29T02:48:53;4.00;;;1.90;;
45642;SDS011;31358;46.008;11.144;2023-07-29T02:51:18;3.90;;;2.25;;
45642;SDS011;31358;46.008;11.144;2023-07-29T02:53:44;3.30;;;1.60;;
45642;SDS011;31358;46.008;11.144;2023-07-29T02:56:10;3.40;;;1.65;;
45642;SDS011;31358;46.008;11.144;2023-07-29T02:58:37;3.88;;;1.45;;
45642;SDS011;31358;46.008;11.144;2023-07-29T03:01:03;4.47;;;2.10;;
45642;SDS011;31358;46.008;11.144;2023-07-29T03:03:30;3.35;;;1.52;;
45642;SDS011;31358;46.008;11.144;2023-07-29T03:06:00;4.45;;;1.55;;
45642;SDS011;31358;46.008;11.144;2023-07-29T03:08:33;3.97;;;1.95;;
45642;SDS011;31358;46.008;11.144;2023-07-29T03:11:04;3.58;;;1.55;;
45642;SDS011;31358;46.008;11.144;2023-07-29T03:13:35;4.80;;;1.58;;
45642;SDS011;31358;46.008;11.144;2023-07-29T03:18:33;3.35;;;1.73;;
45642;SDS011;31358;46.008;11.144;2023-07-29T03:20:59;5.47;;;1.65;;
45642;SDS011;31358;46.008;11.144;2023-07-29T03:23:25;3.83;;;1.77;;
45642;SDS011;31358;46.008;11.144;2023-07-29T03:25:53;4.63;;;1.98;;
45642;SDS011;31358;46.008;11.144;2023-07-29T03:28:22;7.97;;;1.90;;
45642;SDS011;31358;46.008;11.144;2023-07-29T03:30:53;2.97;;;1.35;;
45642;SDS011;31358;46.008;11.144;2023-07-29T03:33:19;5.05;;;1.70;;
45642;SDS011;31358;46.008;11.144;2023-07-29T03:35:44;3.28;;;1.52;;
45642;SDS011;31358;46.008;11.144;2023-07-29T03:38:13;5.45;;;2.35;;
45642;SDS011;31358;46.008;11.144;2023-07-29T03:40:39;3.45;;;2.08;;
45642;SDS011;31358;46.008;11.144;2023-07-29T03:43:05;12.32;;;2.17;;
45642;SDS011;31358;46.008;11.144;2023-07-29T03:45:32;8.95;;;2.30;;
45642;SDS011;31358;46.008;11.144;2023-07-29T03:47:58;8.20;;;2.58;;
45642;SDS011;31358;46.008;11.144;2023-07-29T03:50:24;5.93;;;1.70;;
45642;SDS011;31358;46.008;11.144;2023-07-29T03:52:50;4.18;;;1.73;;
45642;SDS011;31358;46.008;11.144;2023-07-29T03:55:16;5.55;;;1.95;;
45642;SDS011;31358;46.008;11.144;2023-07-29T03:57:41;4.70;;;1.80;;
45642;SDS011;31358;46.008;11.144;2023-07-29T04:00:07;4.20;;;2.03;;
45642;SDS011;31358;46.008;11.144;2023-07-29T04:02:36;6.60;;;1.95;;
45642;SDS011;31358;46.008;11.144;2023-07-29T04:05:05;4.57;;;1.90;;
45642;SDS011;31358;46.008;11.144;2023-07-29T04:07:33;3.33;;;1.80;;
45642;SDS011;31358;46.008;11.144;2023-07-29T04:10:02;4.90;;;2.00;;
45642;SDS011;31358;46.008;11.144;2023-07-29T04:12:30;3.47;;;1.50;;
45642;SDS011;31358;46.008;11.144;2023-07-29T04:14:55;4.15;;;2.05;;
45642;SDS011;31358;46.008;11.144;2023-07-29T04:17:21;8.88;;;2.00;;
45642;SDS011;31358;46.008;11.144;2023-07-29T04:19:47;6.25;;;2.00;;
45642;SDS011;31358;46.008;11.144;2023-07-29T04:22:13;3.40;;;1.60;;
45642;SDS011;31358;46.008;11.144;2023-07-29T04:24:40;2.97;;;1.60;;
45642;SDS011;31358;46.008;11.144;2023-07-29T04:27:06;3.63;;;1.70;;
45642;SDS011;31358;46.008;11.144;2023-07-29T04:29:31;3.80;;;1.90;;
45642;SDS011;31358;46.008;11.144;2023-07-29T04:31:57;5.20;;;2.25;;
45642;SDS011;31358;46.008;11.144;2023-07-29T04:34:23;3.80;;;2.08;;
45642;SDS011;31358;46.008;11.144;2023-07-29T04:36:48;3.92;;;1.75;;
45642;SDS011;31358;46.008;11.144;2023-07-29T04:39:14;3.38;;;1.88;;
45642;SDS011;31358;46.008;11.144;2023-07-29T04:41:40;3.35;;;1.67;;
45642;SDS011;31358;46.008;11.144;2023-07-29T04:44:06;4.22;;;1.92;;
45642;SDS011;31358;46.008;11.144;2023-07-29T04:46:32;6.40;;;1.95;;
45642;SDS011;31358;46.008;11.144;2023-07-29T04:48:58;4.43;;;1.80;;
45642;SDS011;31358;46.008;11.144;2023-07-29T04:51:24;2.67;;;1.45;;
45642;SDS011;31358;46.008;11.144;2023-07-29T04:53:50;5.30;;;1.30;;
45642;SDS011;31358;46.008;11.144;2023-07-29T04:56:16;3.30;;;1.70;;
45642;SDS011;31358;46.008;11.144;2023-07-29T04:58:41;3.80;;;1.58;;
45642;SDS011;31358;46.008;11.144;2023-07-29T05:01:07;4.05;;;1.67;;
45642;SDS011;31358;46.008;11.144;2023-07-29T05:03:33;2.40;;;1.17;;
45642;SDS011;31358;46.008;11.144;2023-07-29T05:05:58;5.47;;;1.95;;
45642;SDS011;31358;46.008;11.144;2023-07-29T05:08:28;4.40;;;1.58;;
45642;SDS011;31358;46.008;11.144;2023-07-29T05:10:53;4.57;;;2.20;;
45642;SDS011;31358;46.008;11.144;2023-07-29T05:13:22;3.83;;;1.88;;
45642;SDS011;31358;46.008;11.144;2023-07-29T05:15:48;2.75;;;1.63;;
45642;SDS011;31358;46.008;11.144;2023-07-29T05:18:15;3.10;;;1.60;;
45642;SDS011;31358;46.008;11.144;2023-07-29T05:20:41;3.67;;;1.80;;
45642;SDS011;31358;46.008;11.144;2023-07-29T05:23:07;4.28;;;1.75;;
45642;SDS011;31358;46.008;11.144;2023-07-29T05:25:33;3.58;;;1.63;;
45642;SDS011;31358;46.008;11.144;2023-07-29T05:28:00;3.72;;;1.42;;
45642;SDS011;31358;46.008;11.144;2023-07-29T05:30:26;3.90;;;1.95;;
45642;SDS011;31358;46.008;11.144;2023-07-29T05:32:55;3.08;;;1.70;;
45642;SDS011;31358;46.008;11.144;2023-07-29T05:35:24;6.13;;;1.50;;
45642;SDS011;31358;46.008;11.144;2023-07-29T05:37:50;5.03;;;1.80;;
45642;SDS011;31358;46.008;11.144;2023-07-29T05:40:15;2.58;;;1.52;;
45642;SDS011;31358;46.008;11.144;2023-07-29T05:42:42;3.67;;;1.60;;
45642;SDS011;31358;46.008;11.144;2023-07-29T05:45:09;4.82;;;1.58;;
45642;SDS011;31358;46.008;11.144;2023-07-29T05:47:34;5.78;;;1.75;;
45642;SDS011;31358;46.008;11.144;2023-07-29T05:50:00;3.65;;;1.10;;
45642;SDS011;31358;46.008;11.144;2023-07-29T05:52:29;3.35;;;1.60;;
45642;SDS011;31358;46.008;11.144;2023-07-29T05:54:55;3.55;;;1.63;;
45642;SDS011;31358;46.008;11.144;2023-07-29T05:57:21;2.90;;;1.52;;
45642;SDS011;31358;46.008;11.144;2023-07-29T05:59:46;3.22;;;1.52;;
45642;SDS011;31358;46.008;11.144;2023-07-29T06:02:12;3.22;;;1.55;;
45642;SDS011;31358;46.008;11.144;2023-07-29T06:04:38;2.80;;;1.40;;
45642;SDS011;31358;46.008;11.144;2023-07-29T06:07:03;3.28;;;1.70;;
45642;SDS011;31358;46.008;11.144;2023-07-29T06:09:30;4.13;;;1.52;;
45642;SDS011;31358;46.008;11.144;2023-07-29T06:11:55;2.63;;;1.38;;
45642;SDS011;31358;46.008;11.144;2023-07-29T06:14:21;6.70;;;1.40;;
45642;SDS011;31358;46.008;11.144;2023-07-29T06:16:47;4.50;;;1.40;;
45642;SDS011;31358;46.008;11.144;2023-07-29T06:19:12;5.63;;;1.35;;
45642;SDS011;31358;46.008;11.144;2023-07-29T06:21:38;3.42;;;1.63;;
45642;SDS011;31358;46.008;11.144;2023-07-29T06:24:04;4.03;;;1.40;;
45642;SDS011;31358;46.008;11.144;2023-07-29T06:26:29;4.70;;;1.58;;
45642;SDS011;31358;46.008;11.144;2023-07-29T06:28:55;2.80;;;1.60;;
45642;SDS011;31358;46.008;11.144;2023-07-29T06:31:21;3.30;;;1.30;;
45642;SDS011;31358;46.008;11.144;2023-07-29T06:33:47;3.33;;;1.33;;
45642;SDS011;31358;46.008;11.144;2023-07-29T06:36:13;2.60;;;1.23;;
45642;SDS011;31358;46.008;11.144;2023-07-29T06:38:39;3.90;;;1.40;;
45642;SDS011;31358;46.008;11.144;2023-07-29T06:41:06;2.28;;;1.13;;
45642;SDS011;31358;46.008;11.144;2023-07-29T06:43:31;3.78;;;1.50;;
45642;SDS011;31358;46.008;11.144;2023-07-29T06:45:57;3.05;;;1.60;;
45642;SDS011;31358;46.008;11.144;2023-07-29T06:48:23;2.45;;;1.33;;
45642;SDS011;31358;46.008;11.144;2023-07-29T06:50:49;3.92;;;1.58;;
45642;SDS011;31358;46.008;11.144;2023-07-29T06:53:20;2.65;;;1.20;;
45642;SDS011;31358;46.008;11.144;2023-07-29T06:55:45;5.03;;;1.40;;
45642;SDS011;31358;46.008;11.144;2023-07-29T06:58:11;3.70;;;1.50;;
45642;SDS011;31358;46.008;11.144;2023-07-29T07:00:37;3.38;;;1.80;;
45642;SDS011;31358;46.008;11.144;2023-07-29T07:03:02;2.75;;;1.42;;
45642;SDS011;31358;46.008;11.144;2023-07-29T07:05:28;3.42;;;1.65;;
45642;SDS011;31358;46.008;11.144;2023-07-29T07:07:53;3.08;;;1.55;;
45642;SDS011;31358;46.008;11.144;2023-07-29T07:10:19;4.00;;;1.52;;
45642;SDS011;31358;46.008;11.144;2023-07-29T07:12:45;3.20;;;1.58;;
45642;SDS011;31358;46.008;11.144;2023-07-29T07:15:11;2.78;;;1.40;;
45642;SDS011;31358;46.008;11.144;2023-07-29T07:17:36;3.40;;;1.52;;
45642;SDS011;31358;46.008;11.144;2023-07-29T07:20:02;3.63;;;1.58;;
45642;SDS011;31358;46.008;11.144;2023-07-29T07:22:28;3.35;;;1.60;;
45642;SDS011;31358;46.008;11.144;2023-07-29T07:24:54;3.15;;;1.38;;
45642;SDS011;31358;46.008;11.144;2023-07-29T07:27:20;2.30;;;1.30;;
45642;SDS011;31358;46.008;11.144;2023-07-29T07:29:46;4.43;;;1.40;;
45642;SDS011;31358;46.008;11.144;2023-07-29T07:32:12;4.13;;;1.98;;
45642;SDS011;31358;46.008;11.144;2023-07-29T07:34:38;2.90;;;1.33;;
45642;SDS011;31358;46.008;11.144;2023-07-29T07:37:03;2.45;;;1.08;;
45642;SDS011;31358;46.008;11.144;2023-07-29T07:39:29;2.70;;;1.20;;
45642;SDS011;31358;46.008;11.144;2023-07-29T07:41:56;2.20;;;1.27;;
45642;SDS011;31358;46.008;11.144;2023-07-29T07:44:22;4.00;;;1.30;;
45642;SDS011;31358;46.008;11.144;2023-07-29T07:46:47;2.10;;;1.23;;
45642;SDS011;31358;46.008;11.144;2023-07-29T07:49:13;2.92;;;1.42;;
45642;SDS011;31358;46.008;11.144;2023-07-29T07:51:39;5.35;;;1.67;;
45642;SDS011;31358;46.008;11.144;2023-07-29T07:54:05;4.07;;;1.67;;
45642;SDS011;31358;46.008;11.144;2023-07-29T07:56:31;4.85;;;1.55;;
45642;SDS011;31358;46.008;11.144;2023-07-29T07:58:57;2.20;;;1.40;;
45642;SDS011;31358;46.008;11.144;2023-07-29T08:01:22;3.20;;;1.80;;
45642;SDS011;31358;46.008;11.144;2023-07-29T08:03:48;3.65;;;2.05;;
45642;SDS011;31358;46.008;11.144;2023-07-29T08:06:13;3.58;;;1.50;;
45642;SDS011;31358;46.008;11.144;2023-07-29T08:08:39;3.17;;;1.48;;
45642;SDS011;31358;46.008;11.144;2023-07-29T08:11:05;3.47;;;1.50;;
45642;SDS011;31358;46.008;11.144;2023-07-29T08:13:30;4.85;;;1.48;;
45642;SDS011;31358;46.008;11.144;2023-07-29T08:15:56;2.25;;;1.20;;
45642;SDS011;31358;46.008;11.144;2023-07-29T08:18:22;3.17;;;1.60;;
45642;SDS011;31358;46.008;11.144;2023-07-29T08:23:20;4.90;;;1.30;;
45642;SDS011;31358;46.008;11.144;2023-07-29T08:25:51;3.60;;;1.75;;
45642;SDS011;31358;46.008;11.144;2023-07-29T08:28:21;4.78;;;1.73;;
45642;SDS011;31358;46.008;11.144;2023-07-29T08:30:47;3.88;;;1.50;;
45642;SDS011;31358;46.008;11.144;2023-07-29T08:33:13;2.70;;;1.30;;
45642;SDS011;31358;46.008;11.144;2023-07-29T08:35:38;3.25;;;1.20;;
45642;SDS011;31358;46.008;11.144;2023-07-29T08:38:04;2.78;;;1.23;;
45642;SDS011;31358;46.008;11.144;2023-07-29T08:40:30;3.35;;;1.70;;
45642;SDS011;31358;46.008;11.144;2023-07-29T08:42:59;3.55;;;1.48;;
45642;SDS011;31358;46.008;11.144;2023-07-29T08:45:30;3.13;;;1.60;;
45642;SDS011;31358;46.008;11.144;2023-07-29T08:47:59;2.67;;;1.42;;
45642;SDS011;31358;46.008;11.144;2023-07-29T08:50:31;3.03;;;1.60;;
45642;SDS011;31358;46.008;11.144;2023-07-29T08:52:58;3.83;;;1.70;;
45642;SDS011;31358;46.008;11.144;2023-07-29T08:55:25;3.20;;;1.55;;
45642;SDS011;31358;46.008;11.144;2023-07-29T08:57:51;3.45;;;2.00;;
45642;SDS011;31358;46.008;11.144;2023-07-29T09:00:18;3.38;;;1.63;;
45642;SDS011;31358;46.008;11.144;2023-07-29T09:02:44;3.45;;;1.70;;
45642;SDS011;31358;46.008;11.144;2023-07-29T09:05:10;3.17;;;1.58;;
45642;SDS011;31358;46.008;11.144;2023-07-29T09:07:36;4.35;;;2.20;;
45642;SDS011;31358;46.008;11.144;2023-07-29T09:10:02;4.40;;;1.63;;
45642;SDS011;31358;46.008;11.144;2023-07-29T09:12:27;5.15;;;1.50;;
45642;SDS011;31358;46.008;11.144;2023-07-29T09:14:53;3.22;;;1.63;;
45642;SDS011;31358;46.008;11.144;2023-07-29T09:17:22;4.10;;;1.60;;
45642;SDS011;31358;46.008;11.144;2023-07-29T09:19:48;5.43;;;2.38;;
45642;SDS011;31358;46.008;11.144;2023-07-29T09:22:18;3.58;;;1.77;;
45642;SDS011;31358;46.008;11.144;2023-07-29T09:24:45;4.00;;;1.90;;
45642;SDS011;31358;46.008;11.144;2023-07-29T09:27:24;3.70;;;1.98;;
45642;SDS011;31358;46.008;11.144;2023-07-29T09:29:50;4.40;;;2.05;;
45642;SDS011;31358;46.008;11.144;2023-07-29T09:32:23;5.00;;;1.63;;
45642;SDS011;31358;46.008;11.144;2023-07-29T09:34:50;5.20;;;1.95;;
45642;SDS011;31358;46.008;11.144;2023-07-29T09:37:16;5.63;;;1.80;;
45642;SDS011;31358;46.008;11.144;2023-07-29T09:39:46;4.45;;;2.10;;
45642;SDS011;31358;46.008;11.144;2023-07-29T09:42:17;3.42;;;1.95;;
45642;SDS011;31358;46.008;11.144;2023-07-29T09:44:44;2.78;;;1.70;;
45642;SDS011;31358;46.008;11.144;2023-07-29T09:47:14;3.40;;;1.90;;
45642;SDS011;31358;46.008;11.144;2023-07-29T09:49:47;4.80;;;2.00;;
45642;SDS011;31358;46.008;11.144;2023-07-29T09:52:15;3.53;;;1.80;;
45642;SDS011;31358;46.008;11.144;2023-07-29T09:54:42;6.30;;;2.20;;
45642;SDS011;31358;46.008;11.144;2023-07-29T09:57:09;3.78;;;2.00;;
45642;SDS011;31358;46.008;11.144;2023-07-29T10:00:05;3.15;;;1.67;;
45642;SDS011;31358;46.008;11.144;2023-07-29T10:02:36;3.83;;;2.08;;
45642;SDS011;31358;46.008;11.144;2023-07-29T10:05:05;2.78;;;1.60;;
45642;SDS011;31358;46.008;11.144;2023-07-29T10:07:33;9.90;;;4.20;;
45642;SDS011;31358;46.008;11.144;2023-07-29T10:09:59;10.68;;;4.05;;
45642;SDS011;31358;46.008;11.144;2023-07-29T10:12:27;4.53;;;2.28;;
45642;SDS011;31358;46.008;11.144;2023-07-29T10:14:55;4.13;;;2.25;;
45642;SDS011;31358;46.008;11.144;2023-07-29T10:17:25;4.25;;;2.38;;
45642;SDS011;31358;46.008;11.144;2023-07-29T10:19:51;4.30;;;2.33;;
45642;SDS011;31358;46.008;11.144;2023-07-29T10:22:18;11.68;;;4.53;;
45642;SDS011;31358;46.008;11.144;2023-07-29T10:24:46;8.07;;;2.45;;
45642;SDS011;31358;46.008;11.144;2023-07-29T10:27:13;7.03;;;3.63;;
45642;SDS011;31358;46.008;11.144;2023-07-29T10:29:44;18.15;;;4.65;;
45642;SDS011;31358;46.008;11.144;2023-07-29T10:32:11;5.22;;;2.22;;
45642;SDS011;31358;46.008;11.144;2023-07-29T10:34:37;5.45;;;3.10;;
45642;SDS011;31358;46.008;11.144;2023-07-29T10:37:03;3.75;;;2.20;;
45642;SDS011;31358;46.008;11.144;2023-07-29T10:39:38;5.15;;;2.42;;
45642;SDS011;31358;46.008;11.144;2023-07-29T10:42:05;5.28;;;2.42;;
45642;SDS011;31358;46.008;11.144;2023-07-29T10:47:23;4.25;;;2.33;;
45642;SDS011;31358;46.008;11.144;2023-07-29T10:49:54;4.60;;;2.38;;
45642;SDS011;31358;46.008;11.144;2023-07-29T10:52:54;4.63;;;2.35;;
45642;SDS011;31358;46.008;11.144;2023-07-29T10:57:51;5.95;;;2.47;;
45642;SDS011;31358;46.008;11.144;2023-07-29T11:00:18;4.22;;;2.83;;
45642;SDS011;31358;46.008;11.144;2023-07-29T11:03:09;5.68;;;2.97;;
45642;SDS011;31358;46.008;11.144;2023-07-29T11:05:47;5.20;;;2.90;;
45642;SDS011;31358;46.008;11.144;2023-07-29T11:10:43;6.80;;;2.60;;
45642;SDS011;31358;46.008;11.144;2023-07-29T11:13:09;5.57;;;3.05;;
45642;SDS011;31358;46.008;11.144;2023-07-29T11:15:36;4.85;;;2.63;;
45642;SDS011;31358;46.008;11.144;2023-07-29T11:18:04;8.25;;;2.95;;
45642;SDS011;31358;46.008;11.144;2023-07-29T11:20:32;5.13;;;2.53;;
45642;SDS011;31358;46.008;11.144;2023-07-29T11:23:02;5.95;;;2.70;;
45642;SDS011;31358;46.008;11.144;2023-07-29T11:25:29;6.65;;;2.80;;
45642;SDS011;31358;46.008;11.144;2023-07-29T11:27:56;5.43;;;2.60;;
45642;SDS011;31358;46.008;11.144;2023-07-29T11:30:24;10.10;;;3.30;;
45642;SDS011;31358;46.008;11.144;2023-07-29T11:32:54;7.20;;;2.42;;
45642;SDS011;31358;46.008;11.144;2023-07-29T11:35:21;5.40;;;2.42;;
45642;SDS011;31358;46.008;11.144;2023-07-29T11:37:47;5.00;;;2.78;;
45642;SDS011;31358;46.008;11.144;2023-07-29T11:40:21;6.15;;;2.90;;
45642;SDS011;31358;46.008;11.144;2023-07-29T11:42:48;7.40;;;3.38;;
45642;SDS011;31358;46.008;11.144;2023-07-29T11:45:18;5.68;;;3.28;;
45642;SDS011;31358;46.008;11.144;2023-07-29T11:47:45;7.32;;;2.67;;
45642;SDS011;31358;46.008;11.144;2023-07-29T11:50:12;4.30;;;2.70;;
45642;SDS011;31358;46.008;11.144;2023-07-29T11:52:40;6.35;;;2.55;;
45642;SDS011;31358;46.008;11.144;2023-07-29T11:55:11;4.25;;;2.70;;
45642;SDS011;31358;46.008;11.144;2023-07-29T11:57:38;6.38;;;3.75;;
45642;SDS011;31358;46.008;11.144;2023-07-29T12:00:05;4.97;;;2.85;;
45642;SDS011;31358;46.008;11.144;2023-07-29T12:02:32;5.18;;;2.85;;
45642;SDS011;31358;46.008;11.144;2023-07-29T12:05:04;6.35;;;2.55;;
45642;SDS011;31358;46.008;11.144;2023-07-29T12:07:31;6.45;;;2.65;;
45642;SDS011;31358;46.008;11.144;2023-07-29T12:09:58;5.75;;;3.42;;
45642;SDS011;31358;46.008;11.144;2023-07-29T12:12:24;10.20;;;3.30;;
45642;SDS011;31358;46.008;11.144;2023-07-29T12:14:50;5.40;;;2.75;;
45642;SDS011;31358;46.008;11.144;2023-07-29T12:17:15;7.32;;;3.05;;
45642;SDS011;31358;46.008;11.144;2023-07-29T12:19:42;4.70;;;2.60;;
45642;SDS011;31358;46.008;11.144;2023-07-29T12:22:08;6.68;;;3.10;;
45642;SDS011;31358;46.008;11.144;2023-07-29T12:24:36;6.82;;;2.90;;
45642;SDS011;31358;46.008;11.144;2023-07-29T12:27:03;6.75;;;3.97;;
45642;SDS011;31358;46.008;11.144;2023-07-29T12:29:30;7.38;;;3.33;;
45642;SDS011;31358;46.008;11.144;2023-07-29T12:31:59;4.72;;;2.95;;
45642;SDS011;31358;46.008;11.144;2023-07-29T12:34:27;6.75;;;3.10;;
45642;SDS011;31358;46.008;11.144;2023-07-29T12:36:53;6.65;;;3.38;;
45642;SDS011;31358;46.008;11.144;2023-07-29T12:39:30;5.00;;;3.00;;
45642;SDS011;31358;46.008;11.144;2023-07-29T12:42:00;5.93;;;2.67;;
45642;SDS011;31358;46.008;11.144;2023-07-29T12:44:32;7.18;;;3.25;;
45642;SDS011;31358;46.008;11.144;2023-07-29T12:47:00;6.53;;;3.35;;
45642;SDS011;31358;46.008;11.144;2023-07-29T12:49:27;7.43;;;3.22;;
45642;SDS011;31358;46.008;11.144;2023-07-29T12:51:54;5.65;;;2.95;;
45642;SDS011;31358;46.008;11.144;2023-07-29T12:54:23;8.23;;;3.45;;
45642;SDS011;31358;46.008;11.144;2023-07-29T12:56:49;8.85;;;3.42;;
45642;SDS011;31358;46.008;11.144;2023-07-29T12:59:15;4.78;;;2.90;;
45642;SDS011;31358;46.008;11.144;2023-07-29T13:01:40;5.57;;;3.60;;
45642;SDS011;31358;46.008;11.144;2023-07-29T13:04:06;7.07;;;3.40;;
45642;SDS011;31358;46.008;11.144;2023-07-29T13:06:31;6.80;;;3.75;;
45642;SDS011;31358;46.008;11.144;2023-07-29T13:08:57;5.80;;;4.13;;
45642;SDS011;31358;46.008;11.144;2023-07-29T13:11:23;4.55;;;2.58;;
45642;SDS011;31358;46.008;11.144;2023-07-29T13:13:49;6.35;;;3.05;;
45642;SDS011;31358;46.008;11.144;2023-07-29T13:16:15;6.75;;;3.50;;
45642;SDS011;31358;46.008;11.144;2023-07-29T13:18:40;10.85;;;3.83;;
45642;SDS011;31358;46.008;11.144;2023-07-29T13:21:08;5.97;;;3.53;;
45642;SDS011;31358;46.008;11.144;2023-07-29T13:23:33;5.70;;;3.70;;
45642;SDS011;31358;46.008;11.144;2023-07-29T13:25:59;7.80;;;3.50;;
45642;SDS011;31358;46.008;11.144;2023-07-29T13:28:25;11.88;;;3.63;;
45642;SDS011;31358;46.008;11.144;2023-07-29T13:30:50;6.30;;;3.20;;
45642;SDS011;31358;46.008;11.144;2023-07-29T13:33:16;5.97;;;3.03;;
45642;SDS011;31358;46.008;11.144;2023-07-29T13:35:42;7.55;;;3.85;;
45642;SDS011;31358;46.008;11.144;2023-07-29T13:38:07;23.60;;;3.42;;
45642;SDS011;31358;46.008;11.144;2023-07-29T13:40:33;5.88;;;3.00;;
45642;SDS011;31358;46.008;11.144;2023-07-29T13:42:59;10.30;;;3.33;;
45642;SDS011;31358;46.008;11.144;2023-07-29T13:45:24;6.70;;;3.30;;
45642;SDS011;31358;46.008;11.144;2023-07-29T13:47:50;5.78;;;3.20;;
45642;SDS011;31358;46.008;11.144;2023-07-29T13:50:16;7.45;;;3.90;;
45642;SDS011;31358;46.008;11.144;2023-07-29T13:52:45;13.68;;;3.53;;
45642;SDS011;31358;46.008;11.144;2023-07-29T13:55:11;6.90;;;3.38;;
45642;SDS011;31358;46.008;11.144;2023-07-29T13:57:37;7.57;;;3.47;;
45642;SDS011;31358;46.008;11.144;2023-07-29T14:00:06;6.57;;;3.97;;
45642;SDS011;31358;46.008;11.144;2023-07-29T14:02:33;6.13;;;3.33;;
45642;SDS011;31358;46.008;11.144;2023-07-29T14:04:59;8.43;;;3.60;;
45642;SDS011;31358;46.008;11.144;2023-07-29T14:07:24;6.00;;;3.40;;
45642;SDS011;31358;46.008;11.144;2023-07-29T14:09:50;7.47;;;3.72;;
45642;SDS011;31358;46.008;11.144;2023-07-29T14:12:16;6.22;;;3.67;;
45642;SDS011;31358;46.008;11.144;2023-07-29T14:14:41;6.85;;;3.17;;
45642;SDS011;31358;46.008;11.144;2023-07-29T14:17:07;7.68;;;3.38;;
45642;SDS011;31358;46.008;11.144;2023-07-29T14:19:34;6.88;;;3.30;;
45642;SDS011;31358;46.008;11.144;2023-07-29T14:21:59;5.28;;;3.00;;
45642;SDS011;31358;46.008;11.144;2023-07-29T14:24:25;6.75;;;3.40;;
45642;SDS011;31358;46.008;11.144;2023-07-29T14:26:51;5.55;;;2.60;;
45642;SDS011;31358;46.008;11.144;2023-07-29T14:29:16;5.18;;;3.20;;
45642;SDS011;31358;46.008;11.144;2023-07-29T14:31:42;6.18;;;3.30;;
45642;SDS011;31358;46.008;11.144;2023-07-29T14:34:08;12.05;;;3.95;;
45642;SDS011;31358;46.008;11.144;2023-07-29T14:36:34;6.10;;;3.40;;
45642;SDS011;31358;46.008;11.144;2023-07-29T14:38:59;7.45;;;3.08;;
45642;SDS011;31358;46.008;11.144;2023-07-29T14:41:25;5.47;;;3.25;;
45642;SDS011;31358;46.008;11.144;2023-07-29T14:43:51;5.88;;;2.97;;
45642;SDS011;31358;46.008;11.144;2023-07-29T14:46:16;5.80;;;3.17;;
45642;SDS011;31358;46.008;11.144;2023-07-29T14:48:42;9.30;;;3.55;;
45642;SDS011;31358;46.008;11.144;2023-07-29T14:51:08;6.03;;;3.75;;
45642;SDS011;31358;46.008;11.144;2023-07-29T14:53:34;5.72;;;3.40;;
45642;SDS011;31358;46.008;11.144;2023-07-29T14:55:59;7.22;;;3.30;;
45642;SDS011;31358;46.008;11.144;2023-07-29T14:58:25;5.63;;;3.28;;